Lapis Arrow — C6VH5 — position and weather

sailwx.info

Track history (hours):
 
Tides and Currents Weather Stations Pressure Air Temp Water Temp Dewpoint Dewpoint Depression Visibility Wind Speed Wind Dir Waves Ship Positions

Lapis Arrow

Last reported at 2015-Feb-20 15:06 UTC. Time now 2015-Mar-04 08:36 UTC.
Position N 36°27' E 014°33'.
Warning: this ship's position is 11 days out of date.

Length 176 m; draft 7.3 m.

Type: Cargo ship. MMSI: 308800800.

Date/timePositionNaut miles runAvg speedWind from/ knotsBaromVisibWave heightAir tempDewpointWater temp
2015-Feb-20 15:06N 36°27' E 014°33'815.3
2015-Feb-20 14:34N 36°30' E 014°23'1515.1
2015-Feb-20 13:33N 36°34' E 014°05'  
2015-Feb-17 15:26N 35°59' W 005°07'1415.7
2015-Feb-17 14:34N 35°58' W 005°24'22812.5
2015-Feb-16 20:21N 37°29' W 009°45'5614.6
2015-Feb-16 16:33N 38°23' W 010°01'1514.8
2015-Feb-16 15:32N 38°37' W 010°05'  
2015-Feb-13 20:18N 50°26' W 000°24'1213.4
2015-Feb-13 19:23N 50°30' W 000°05'1113.0
2015-Feb-13 18:32N 50°32' E 000°11'3712.0
2015-Feb-13 15:29N 50°48' E 001°04'1112.0
2015-Feb-13 14:34N 50°55' E 001°18'1312.9
2015-Feb-13 13:33N 51°04' E 001°32'1413.6
2015-Feb-13 12:33N 51°15' E 001°46'1313.4
2015-Feb-13 11:34N 51°26' E 001°56'1312.7
2015-Feb-13 10:33N 51°36' E 002°09'1312.4
2015-Feb-13 09:30N 51°46' E 002°23'5112.5
2015-Feb-13 05:23N 52°26' E 003°16'2614.1
2015-Feb-13 03:33N 52°46' E 003°42'1514.3
2015-Feb-13 02:32N 52°57' E 003°58'2713.4
2015-Feb-13 00:32N 53°16' E 004°29'1212.6
2015-Feb-12 23:33N 53°28' E 004°38'1212.2
2015-Feb-12 22:33N 53°32' E 004°57'1312.5
2015-Feb-12 21:33N 53°37' E 005°17'1413.7
2015-Feb-12 20:33N 53°41' E 005°39'1514.5
2015-Feb-12 19:31N 53°46' E 006°03'1212.3
2015-Feb-12 18:31N 53°38' E 006°19'1313.6
2015-Feb-12 17:33N 53°34' E 006°40'1515.0
2015-Feb-12 16:33N 53°23' E 006°58'8 7.8
2015-Feb-12 15:33N 53°20' E 007°10'0 0.0
2015-Feb-12 14:32N 53°20' E 007°10'0 0.0
2015-Feb-12 13:32N 53°20' E 007°10'0 0.0
2015-Feb-12 12:20N 53°20' E 007°10'0 0.0
2015-Feb-12 11:32N 53°20' E 007°10'0 0.0
2015-Feb-12 10:33N 53°20' E 007°10'0 0.0
2015-Feb-12 09:32N 53°20' E 007°10'0 0.0
2015-Feb-12 08:32N 53°20' E 007°10'0 0.0
2015-Feb-12 07:32N 53°20' E 007°10'0 0.0
2015-Feb-12 06:32N 53°20' E 007°10'0 0.0
2015-Feb-12 05:32N 53°20' E 007°10'0 0.0
2015-Feb-12 04:32N 53°20' E 007°10'0 0.0
2015-Feb-12 03:31N 53°20' E 007°10'0 0.0
2015-Feb-12 02:28N 53°20' E 007°10'0 0.0
2015-Feb-12 01:31N 53°20' E 007°10'0 0.0
2015-Feb-12 00:31N 53°20' E 007°10'0 0.0
2015-Feb-11 23:31N 53°20' E 007°10'0 0.0
2015-Feb-11 22:31N 53°20' E 007°10'0 0.0
2015-Feb-11 21:28N 53°20' E 007°10'0 0.0
2015-Feb-11 20:32N 53°20' E 007°10'0 0.0
2015-Feb-11 19:28N 53°20' E 007°10'0 0.0
2015-Feb-11 18:31N 53°20' E 007°10'0 0.0
2015-Feb-11 17:31N 53°20' E 007°10'0 0.0
2015-Feb-11 16:28N 53°20' E 007°10'0 0.0
2015-Feb-11 15:25N 53°20' E 007°10'0 0.0
2015-Feb-11 14:31N 53°20' E 007°10'0 0.0
2015-Feb-11 13:11N 53°20' E 007°10'0 0.0
2015-Feb-11 12:23N 53°20' E 007°10'4 5.0
2015-Feb-11 11:32N 53°19' E 007°03'1413.4
2015-Feb-11 10:28N 53°30' E 006°47'1314.5
2015-Feb-11 09:33N 53°37' E 006°28'1111.4
2015-Feb-11 08:33N 53°39' E 006°09'1413.9
2015-Feb-11 07:33N 53°37' E 005°46'1413.7
2015-Feb-11 06:33N 53°33' E 005°24'1413.5
2015-Feb-11 05:33N 53°29' E 005°02'1313.3
2015-Feb-11 04:33N 53°23' E 004°42'1413.6
2015-Feb-11 03:33N 53°10' E 004°32'1413.6
2015-Feb-11 02:34N 52°59' E 004°21'1413.5
2015-Feb-11 01:32N 52°47' E 004°09'1313.5
2015-Feb-11 00:33N 52°37' E 003°54'1313.4
2015-Feb-10 23:33N 52°26' E 003°42'1211.6
2015-Feb-10 22:33N 52°17' E 003°30'1111.3
2015-Feb-10 21:33N 52°10' E 003°15'1414.3
2015-Feb-10 20:33N 52°00' E 002°58'1414.4
2015-Feb-10 19:33N 51°48' E 002°45'1515.3
2015-Feb-10 18:33N 51°33' E 002°42'1211.9
2015-Feb-10 17:34N 51°22' E 002°49'1211.7
2015-Feb-10 16:33N 51°24' E 003°08'5 5.0
2015-Feb-10 15:33N 51°20' E 003°13'  
Track history (hours):
 
Tides and Currents Weather Stations Pressure Air Temp Water Temp Dewpoint Dewpoint Depression Visibility Wind Speed Wind Dir Waves Ship Positions

Lapis Arrow

Last reported at 2015-Feb-20 15:06 UTC. Time now 2015-Mar-04 08:36 UTC.
Position N 36°27' E 014°33'.
Warning: this ship's position is 11 days out of date.

Length 176 m; draft 7.3 m.

Type: Cargo ship. MMSI: 308800800.

Date/timePositionNaut miles runAvg speedWind from/ knotsBaromVisibWave heightAir tempDewpointWater temp
2015-Feb-20 15:06N 36°27' E 014°33'815.3
2015-Feb-20 14:34N 36°30' E 014°23'1515.1
2015-Feb-20 13:33N 36°34' E 014°05'  
2015-Feb-17 15:26N 35°59' W 005°07'1415.7
2015-Feb-17 14:34N 35°58' W 005°24'22812.5
2015-Feb-16 20:21N 37°29' W 009°45'5614.6
2015-Feb-16 16:33N 38°23' W 010°01'1514.8
2015-Feb-16 15:32N 38°37' W 010°05'  
2015-Feb-13 20:18N 50°26' W 000°24'1213.4
2015-Feb-13 19:23N 50°30' W 000°05'1113.0
2015-Feb-13 18:32N 50°32' E 000°11'3712.0
2015-Feb-13 15:29N 50°48' E 001°04'1112.0
2015-Feb-13 14:34N 50°55' E 001°18'1312.9
2015-Feb-13 13:33N 51°04' E 001°32'1413.6
2015-Feb-13 12:33N 51°15' E 001°46'1313.4
2015-Feb-13 11:34N 51°26' E 001°56'1312.7
2015-Feb-13 10:33N 51°36' E 002°09'1312.4
2015-Feb-13 09:30N 51°46' E 002°23'5112.5
2015-Feb-13 05:23N 52°26' E 003°16'2614.1
2015-Feb-13 03:33N 52°46' E 003°42'1514.3
2015-Feb-13 02:32N 52°57' E 003°58'2713.4
2015-Feb-13 00:32N 53°16' E 004°29'1212.6
2015-Feb-12 23:33N 53°28' E 004°38'1212.2
2015-Feb-12 22:33N 53°32' E 004°57'1312.5
2015-Feb-12 21:33N 53°37' E 005°17'1413.7
2015-Feb-12 20:33N 53°41' E 005°39'1514.5
2015-Feb-12 19:31N 53°46' E 006°03'1212.3
2015-Feb-12 18:31N 53°38' E 006°19'1313.6
2015-Feb-12 17:33N 53°34' E 006°40'1515.0
2015-Feb-12 16:33N 53°23' E 006°58'8 7.8
2015-Feb-12 15:33N 53°20' E 007°10'0 0.0
2015-Feb-12 14:32N 53°20' E 007°10'0 0.0
2015-Feb-12 13:32N 53°20' E 007°10'0 0.0
2015-Feb-12 12:20N 53°20' E 007°10'0 0.0
2015-Feb-12 11:32N 53°20' E 007°10'0 0.0
2015-Feb-12 10:33N 53°20' E 007°10'0 0.0
2015-Feb-12 09:32N 53°20' E 007°10'0 0.0
2015-Feb-12 08:32N 53°20' E 007°10'0 0.0
2015-Feb-12 07:32N 53°20' E 007°10'0 0.0
2015-Feb-12 06:32N 53°20' E 007°10'0 0.0
2015-Feb-12 05:32N 53°20' E 007°10'0 0.0
2015-Feb-12 04:32N 53°20' E 007°10'0 0.0
2015-Feb-12 03:31N 53°20' E 007°10'0 0.0
2015-Feb-12 02:28N 53°20' E 007°10'0 0.0
2015-Feb-12 01:31N 53°20' E 007°10'0 0.0
2015-Feb-12 00:31N 53°20' E 007°10'0 0.0
2015-Feb-11 23:31N 53°20' E 007°10'0 0.0
2015-Feb-11 22:31N 53°20' E 007°10'0 0.0
2015-Feb-11 21:28N 53°20' E 007°10'0 0.0
2015-Feb-11 20:32N 53°20' E 007°10'0 0.0
2015-Feb-11 19:28N 53°20' E 007°10'0 0.0
2015-Feb-11 18:31N 53°20' E 007°10'0 0.0
2015-Feb-11 17:31N 53°20' E 007°10'0 0.0
2015-Feb-11 16:28N 53°20' E 007°10'0 0.0
2015-Feb-11 15:25N 53°20' E 007°10'0 0.0
2015-Feb-11 14:31N 53°20' E 007°10'0 0.0
2015-Feb-11 13:11N 53°20' E 007°10'0 0.0
2015-Feb-11 12:23N 53°20' E 007°10'4 5.0
2015-Feb-11 11:32N 53°19' E 007°03'1413.4
2015-Feb-11 10:28N 53°30' E 006°47'1314.5
2015-Feb-11 09:33N 53°37' E 006°28'1111.4
2015-Feb-11 08:33N 53°39' E 006°09'1413.9
2015-Feb-11 07:33N 53°37' E 005°46'1413.7
2015-Feb-11 06:33N 53°33' E 005°24'1413.5
2015-Feb-11 05:33N 53°29' E 005°02'1313.3
2015-Feb-11 04:33N 53°23' E 004°42'1413.6
2015-Feb-11 03:33N 53°10' E 004°32'1413.6
2015-Feb-11 02:34N 52°59' E 004°21'1413.5
2015-Feb-11 01:32N 52°47' E 004°09'1313.5
2015-Feb-11 00:33N 52°37' E 003°54'1313.4
2015-Feb-10 23:33N 52°26' E 003°42'1211.6
2015-Feb-10 22:33N 52°17' E 003°30'1111.3
2015-Feb-10 21:33N 52°10' E 003°15'1414.3
2015-Feb-10 20:33N 52°00' E 002°58'1414.4
2015-Feb-10 19:33N 51°48' E 002°45'1515.3
2015-Feb-10 18:33N 51°33' E 002°42'1211.9
2015-Feb-10 17:34N 51°22' E 002°49'1211.7
2015-Feb-10 16:33N 51°24' E 003°08'5 5.0
2015-Feb-10 15:33N 51°20' E 003°13'  

Dump ship's entire track history